NCAR-RAP Real-Time Weather Data

Output produced by METARs form (20 February 2019  17:48 UTC)
found at http://weather.rap.ucar.edu/surface/
 
RJBT 200900Z 28006KT 220V320 9999 FEW020 SCT030 08/08 Q1018
RJBT 200800Z 28006KT 220V360 9999 -SHRA FEW015 SCT030 BKN050 08/08 Q1018
RJBT 200700Z 29005KT 220V020 9999 FEW015 BKN025 09/09 Q1017
RJBT 200600Z 30006KT 250V340 9999 FEW001 SCT015 BKN025 09/09 Q1016
RJBT 200500Z 33004KT 290V020 9999 -SHRA FEW002 SCT010 BKN020 09/09 Q1017
RJBT 200400Z 02005KT 340V080 9999 -SHRA FEW002 SCT010 BKN020 08/08 Q1016
RJBT 200300Z 36007KT 320V030 9999 FEW002 SCT010 BKN020 09/09 Q1017
RJBT 200200Z 01005KT 320V050 9999 FEW002 SCT010 BKN020 09/09 Q1017
RJBT 200100Z 02005KT 340V050 7000 -SHRA FEW000 SCT010 BKN020 08/08 Q1017
RJBT 200000Z 01007KT 6000 -SHRA PRFG FEW000 SCT010 BKN020 08/08 Q1017
RJBT 192330Z 01005KT 340V040 4000 -SHRA BR FEW002 SCT010 BKN020 08/08 Q1017
RJBT 190900Z 18012KT 9999 FEW005 SCT025 BKN080 13/13 Q1009
RJBT 190800Z 19010KT 9999 FEW000 SCT020 BKN100 14/14 Q1009
RJBT 190700Z 19014KT 9999 FEW000 SCT020 BKN080 13/13 Q1009
RJBT 190600Z 18011KT 9999 -RA FEW000 SCT020 BKN080 12/12 Q1010
RJBT 190500Z 19010KT 9999 -RA FEW000 SCT020 BKN070 12/12 Q1011
RJBT 190400Z 17011KT 9999 -RA FEW000 SCT015 BKN070 10/10 Q1012
RJBT 190300Z 19010KT 160V220 9999 -RA FEW000 SCT020 BKN080 09/09 Q1015
RJBT 190200Z 19009KT 9999 -RA FEW000 SCT050 BKN080 08/08 Q1017
RJBT 190100Z 19006KT 7000 -RA FEW000 SCT060 BKN080 06/06 Q1018
RJBT 190000Z 20010KT 6000 -RA BCFG FEW000 SCT050 BKN070 05/05 Q1019
RJBT 182330Z 20009KT 6000 -RA FEW000 SCT050 BKN070 05/05 Q1020
RJBT 180900Z 35003KT CAVOK 07/07 Q1024
RJBT 180800Z 01004KT 340V080 CAVOK 09/M01 Q1023
RJBT 180700Z 12003KT 070V180 CAVOK 11/M03 Q1023
RJBT 180600Z VRB03KT 9999 FEW040 SCT/// 10/M04 Q1024